sensor_id;sensor_type;location;lat;lon;timestamp;pressure;altitude;pressure_sealevel;temperature;humidity
74615;BME280;63121;51.458;-0.110;2022-09-02T00:01:30;101623.13;;;18.21;83.35
74615;BME280;63121;51.458;-0.110;2022-09-02T00:04:00;101618.78;;;18.20;83.89
74615;BME280;63121;51.458;-0.110;2022-09-02T00:06:26;101617.75;;;18.21;82.64
74615;BME280;63121;51.458;-0.110;2022-09-02T00:08:52;101615.47;;;18.18;82.84
74615;BME280;63121;51.458;-0.110;2022-09-02T00:11:23;101614.84;;;18.16;83.29
74615;BME280;63121;51.458;-0.110;2022-09-02T00:13:50;101619.16;;;18.17;83.08
74615;BME280;63121;51.458;-0.110;2022-09-02T00:16:16;101606.97;;;18.08;82.57
74615;BME280;63121;51.458;-0.110;2022-09-02T00:18:42;101614.19;;;18.14;83.22
74615;BME280;63121;51.458;-0.110;2022-09-02T00:21:09;101601.41;;;18.16;82.80
74615;BME280;63121;51.458;-0.110;2022-09-02T00:23:37;101602.19;;;18.10;83.18
74615;BME280;63121;51.458;-0.110;2022-09-02T00:26:03;101606.75;;;18.09;82.57
74615;BME280;63121;51.458;-0.110;2022-09-02T00:28:28;101602.84;;;18.12;82.13
74615;BME280;63121;51.458;-0.110;2022-09-02T00:30:54;101597.28;;;18.20;81.08
74615;BME280;63121;51.458;-0.110;2022-09-02T00:33:19;101603.06;;;18.17;81.32
74615;BME280;63121;51.458;-0.110;2022-09-02T00:35:45;101596.44;;;18.13;81.25
74615;BME280;63121;51.458;-0.110;2022-09-02T00:38:11;101598.50;;;18.11;81.48
74615;BME280;63121;51.458;-0.110;2022-09-02T00:40:37;101591.84;;;18.07;80.85
74615;BME280;63121;51.458;-0.110;2022-09-02T00:43:07;101593.50;;;18.01;80.59
74615;BME280;63121;51.458;-0.110;2022-09-02T00:45:33;101593.88;;;17.98;80.93
74615;BME280;63121;51.458;-0.110;2022-09-02T00:48:00;101579.00;;;17.89;80.36
74615;BME280;63121;51.458;-0.110;2022-09-02T00:50:28;101586.47;;;18.00;79.48
74615;BME280;63121;51.458;-0.110;2022-09-02T00:52:58;101592.00;;;17.92;81.16
74615;BME280;63121;51.458;-0.110;2022-09-02T00:55:26;101590.41;;;17.98;80.43
74615;BME280;63121;51.458;-0.110;2022-09-02T00:57:58;101590.16;;;17.93;81.01
74615;BME280;63121;51.458;-0.110;2022-09-02T01:00:28;101588.09;;;17.95;81.94
74615;BME280;63121;51.458;-0.110;2022-09-02T01:02:58;101593.47;;;17.95;83.31
74615;BME280;63121;51.458;-0.110;2022-09-02T01:05:27;101579.59;;;17.85;83.60
74615;BME280;63121;51.458;-0.110;2022-09-02T01:07:56;101575.22;;;17.84;83.49
74615;BME280;63121;51.458;-0.110;2022-09-02T01:10:26;101581.44;;;17.84;84.43
74615;BME280;63121;51.458;-0.110;2022-09-02T01:13:09;101577.69;;;17.79;85.82
74615;BME280;63121;51.458;-0.110;2022-09-02T01:15:39;101576.06;;;17.78;86.08
74615;BME280;63121;51.458;-0.110;2022-09-02T01:18:11;101558.88;;;17.72;86.69
74615;BME280;63121;51.458;-0.110;2022-09-02T01:20:37;101560.53;;;17.73;85.82
74615;BME280;63121;51.458;-0.110;2022-09-02T01:23:03;101559.50;;;17.68;85.88
74615;BME280;63121;51.458;-0.110;2022-09-02T01:25:31;101551.84;;;17.65;85.28
74615;BME280;63121;51.458;-0.110;2022-09-02T01:28:00;101557.34;;;17.57;85.11
74615;BME280;63121;51.458;-0.110;2022-09-02T01:30:25;101537.94;;;17.55;84.26
74615;BME280;63121;51.458;-0.110;2022-09-02T01:32:51;101543.72;;;17.52;84.79
74615;BME280;63121;51.458;-0.110;2022-09-02T01:35:18;101545.34;;;17.53;83.84
74615;BME280;63121;51.458;-0.110;2022-09-02T01:37:44;101550.06;;;17.51;85.13
74615;BME280;63121;51.458;-0.110;2022-09-02T01:40:11;101543.06;;;17.50;85.56
74615;BME280;63121;51.458;-0.110;2022-09-02T01:42:40;101543.72;;;17.52;83.40
74615;BME280;63121;51.458;-0.110;2022-09-02T01:45:06;101535.41;;;17.47;84.58
74615;BME280;63121;51.458;-0.110;2022-09-02T01:47:33;101539.13;;;17.46;83.89
74615;BME280;63121;51.458;-0.110;2022-09-02T01:49:59;101534.16;;;17.43;84.15
74615;BME280;63121;51.458;-0.110;2022-09-02T01:52:26;101532.91;;;17.45;83.96
74615;BME280;63121;51.458;-0.110;2022-09-02T01:54:52;101531.28;;;17.51;83.70
74615;BME280;63121;51.458;-0.110;2022-09-02T01:57:19;101526.31;;;17.48;84.62
74615;BME280;63121;51.458;-0.110;2022-09-02T01:59:44;101522.00;;;17.47;84.61
74615;BME280;63121;51.458;-0.110;2022-09-02T02:02:11;101518.91;;;17.50;84.07
74615;BME280;63121;51.458;-0.110;2022-09-02T02:04:37;101515.19;;;17.51;84.51
74615;BME280;63121;51.458;-0.110;2022-09-02T02:07:03;101517.69;;;17.52;82.99
74615;BME280;63121;51.458;-0.110;2022-09-02T02:09:28;101509.84;;;17.51;82.71
74615;BME280;63121;51.458;-0.110;2022-09-02T02:11:54;101517.50;;;17.54;82.78
74615;BME280;63121;51.458;-0.110;2022-09-02T02:14:19;101512.75;;;17.56;82.65
74615;BME280;63121;51.458;-0.110;2022-09-02T02:16:46;101513.16;;;17.53;83.48
74615;BME280;63121;51.458;-0.110;2022-09-02T02:19:11;101507.16;;;17.51;83.67
74615;BME280;63121;51.458;-0.110;2022-09-02T02:21:37;101503.03;;;17.48;84.03
74615;BME280;63121;51.458;-0.110;2022-09-02T02:24:03;101490.44;;;17.49;83.31
74615;BME280;63121;51.458;-0.110;2022-09-02T02:26:30;101501.00;;;17.57;82.92
74615;BME280;63121;51.458;-0.110;2022-09-02T02:28:56;101492.09;;;17.50;82.89
74615;BME280;63121;51.458;-0.110;2022-09-02T02:31:21;101495.41;;;17.52;82.56
74615;BME280;63121;51.458;-0.110;2022-09-02T02:33:48;101504.44;;;17.44;83.60
74615;BME280;63121;51.458;-0.110;2022-09-02T02:36:17;101497.44;;;17.43;83.53
74615;BME280;63121;51.458;-0.110;2022-09-02T02:38:43;101495.16;;;17.47;82.89
74615;BME280;63121;51.458;-0.110;2022-09-02T02:41:11;101492.50;;;17.47;83.53
74615;BME280;63121;51.458;-0.110;2022-09-02T02:43:38;101494.59;;;17.58;82.51
74615;BME280;63121;51.458;-0.110;2022-09-02T02:46:04;101495.41;;;17.52;82.91
74615;BME280;63121;51.458;-0.110;2022-09-02T02:48:30;101481.81;;;17.53;83.00
74615;BME280;63121;51.458;-0.110;2022-09-02T02:50:56;101495.03;;;17.55;82.92
74615;BME280;63121;51.458;-0.110;2022-09-02T02:53:22;101488.75;;;17.48;83.01
74615;BME280;63121;51.458;-0.110;2022-09-02T02:55:47;101492.94;;;17.50;82.59
74615;BME280;63121;51.458;-0.110;2022-09-02T02:58:13;101484.63;;;17.45;82.77
74615;BME280;63121;51.458;-0.110;2022-09-02T03:00:38;101482.34;;;17.42;83.16
74615;BME280;63121;51.458;-0.110;2022-09-02T03:03:08;101492.88;;;17.44;83.06
74615;BME280;63121;51.458;-0.110;2022-09-02T03:05:36;101484.84;;;17.44;82.17
74615;BME280;63121;51.458;-0.110;2022-09-02T03:08:04;101486.72;;;17.43;82.94
74615;BME280;63121;51.458;-0.110;2022-09-02T03:10:30;101486.09;;;17.48;82.59
74615;BME280;63121;51.458;-0.110;2022-09-02T03:12:59;101473.31;;;17.50;81.61
74615;BME280;63121;51.458;-0.110;2022-09-02T03:15:25;101478.88;;;17.48;82.24
74615;BME280;63121;51.458;-0.110;2022-09-02T03:17:51;101478.03;;;17.48;83.00
74615;BME280;63121;51.458;-0.110;2022-09-02T03:20:17;101476.78;;;17.44;83.18
74615;BME280;63121;51.458;-0.110;2022-09-02T03:22:46;101480.72;;;17.48;82.86
74615;BME280;63121;51.458;-0.110;2022-09-02T03:25:15;101473.13;;;17.51;82.83
74615;BME280;63121;51.458;-0.110;2022-09-02T03:27:41;101468.97;;;17.49;83.15
74615;BME280;63121;51.458;-0.110;2022-09-02T03:30:12;101477.84;;;17.49;83.12
74615;BME280;63121;51.458;-0.110;2022-09-02T03:32:38;101465.41;;;17.42;84.02
74615;BME280;63121;51.458;-0.110;2022-09-02T03:35:07;101464.84;;;17.46;83.93
74615;BME280;63121;51.458;-0.110;2022-09-02T03:37:33;101468.34;;;17.47;83.71
74615;BME280;63121;51.458;-0.110;2022-09-02T03:40:01;101462.97;;;17.47;84.05
74615;BME280;63121;51.458;-0.110;2022-09-02T03:42:27;101457.41;;;17.48;83.64
74615;BME280;63121;51.458;-0.110;2022-09-02T03:44:52;101462.38;;;17.45;84.38
74615;BME280;63121;51.458;-0.110;2022-09-02T03:47:18;101461.72;;;17.43;84.36
74615;BME280;63121;51.458;-0.110;2022-09-02T03:49:45;101451.16;;;17.35;84.61
74615;BME280;63121;51.458;-0.110;2022-09-02T03:52:11;101443.13;;;17.41;84.03
74615;BME280;63121;51.458;-0.110;2022-09-02T03:54:36;101452.00;;;17.42;84.10
74615;BME280;63121;51.458;-0.110;2022-09-02T03:57:02;101445.72;;;17.28;84.60
74615;BME280;63121;51.458;-0.110;2022-09-02T03:59:27;101450.72;;;17.38;84.58
74615;BME280;63121;51.458;-0.110;2022-09-02T04:01:53;101445.34;;;17.38;84.29
74615;BME280;63121;51.458;-0.110;2022-09-02T04:04:18;101442.28;;;17.41;83.83
74615;BME280;63121;51.458;-0.110;2022-09-02T04:06:44;101435.53;;;17.45;84.24
74615;BME280;63121;51.458;-0.110;2022-09-02T04:09:10;101436.75;;;17.42;83.77
74615;BME280;63121;51.458;-0.110;2022-09-02T04:11:37;101438.78;;;17.40;84.63
74615;BME280;63121;51.458;-0.110;2022-09-02T04:14:06;101430.19;;;17.45;83.81
74615;BME280;63121;51.458;-0.110;2022-09-02T04:16:33;101438.44;;;17.50;83.97
74615;BME280;63121;51.458;-0.110;2022-09-02T04:18:59;101430.00;;;17.53;82.61
74615;BME280;63121;51.458;-0.110;2022-09-02T04:21:30;101426.66;;;17.51;82.63
74615;BME280;63121;51.458;-0.110;2022-09-02T04:23:56;101434.09;;;17.49;82.90
74615;BME280;63121;51.458;-0.110;2022-09-02T04:26:22;101433.06;;;17.43;83.09
74615;BME280;63121;51.458;-0.110;2022-09-02T04:28:48;101430.19;;;17.45;82.97
74615;BME280;63121;51.458;-0.110;2022-09-02T04:31:17;101428.06;;;17.40;83.41
74615;BME280;63121;51.458;-0.110;2022-09-02T04:33:43;101428.00;;;17.34;83.18
74615;BME280;63121;51.458;-0.110;2022-09-02T04:36:12;101422.50;;;17.42;83.49
74615;BME280;63121;51.458;-0.110;2022-09-02T04:38:37;101415.44;;;17.41;83.09
74615;BME280;63121;51.458;-0.110;2022-09-02T04:41:15;101423.34;;;17.42;82.74
74615;BME280;63121;51.458;-0.110;2022-09-02T04:43:41;101422.25;;;17.37;82.99
74615;BME280;63121;51.458;-0.110;2022-09-02T04:46:08;101418.53;;;17.38;83.38
74615;BME280;63121;51.458;-0.110;2022-09-02T04:48:35;101426.38;;;17.39;83.10
74615;BME280;63121;51.458;-0.110;2022-09-02T04:51:06;101421.84;;;17.40;82.92
74615;BME280;63121;51.458;-0.110;2022-09-02T04:53:32;101414.84;;;17.39;83.35
74615;BME280;63121;51.458;-0.110;2022-09-02T04:55:57;101418.53;;;17.38;83.21
74615;BME280;63121;51.458;-0.110;2022-09-02T04:58:23;101414.81;;;17.32;82.89
74615;BME280;63121;51.458;-0.110;2022-09-02T05:00:48;101417.28;;;17.34;83.24
74615;BME280;63121;51.458;-0.110;2022-09-02T05:03:13;101410.28;;;17.33;83.52
74615;BME280;63121;51.458;-0.110;2022-09-02T05:05:39;101414.59;;;17.34;83.11
74615;BME280;63121;51.458;-0.110;2022-09-02T05:08:05;101406.56;;;17.34;83.08
74615;BME280;63121;51.458;-0.110;2022-09-02T05:10:31;101405.97;;;17.38;83.68
74615;BME280;63121;51.458;-0.110;2022-09-02T05:12:57;101403.25;;;17.32;83.77
74615;BME280;63121;51.458;-0.110;2022-09-02T05:15:24;101406.16;;;17.37;83.81
74615;BME280;63121;51.458;-0.110;2022-09-02T05:17:51;101412.31;;;17.31;83.41
74615;BME280;63121;51.458;-0.110;2022-09-02T05:20:17;101406.94;;;17.31;83.55
74615;BME280;63121;51.458;-0.110;2022-09-02T05:22:42;101411.50;;;17.30;83.85
74615;BME280;63121;51.458;-0.110;2022-09-02T05:25:08;101411.31;;;17.32;83.49
74615;BME280;63121;51.458;-0.110;2022-09-02T05:27:34;101414.81;;;17.32;83.15
74615;BME280;63121;51.458;-0.110;2022-09-02T05:30:00;101416.88;;;17.30;83.69
74615;BME280;63121;51.458;-0.110;2022-09-02T05:32:26;101412.56;;;17.36;83.31
74615;BME280;63121;51.458;-0.110;2022-09-02T05:34:53;101418.53;;;17.38;83.26
74615;BME280;63121;51.458;-0.110;2022-09-02T05:37:19;101419.56;;;17.37;83.15
74615;BME280;63121;51.458;-0.110;2022-09-02T05:39:45;101417.28;;;17.34;83.84
74615;BME280;63121;51.458;-0.110;2022-09-02T05:42:11;101413.16;;;17.38;83.70
74615;BME280;63121;51.458;-0.110;2022-09-02T05:44:37;101410.28;;;17.33;84.39
74615;BME280;63121;51.458;-0.110;2022-09-02T05:47:03;101410.75;;;17.43;83.24
74615;BME280;63121;51.458;-0.110;2022-09-02T05:49:29;101412.41;;;17.44;83.62
74615;BME280;63121;51.458;-0.110;2022-09-02T05:51:58;101410.38;;;17.46;83.84
74615;BME280;63121;51.458;-0.110;2022-09-02T05:54:33;101403.75;;;17.48;83.25
74615;BME280;63121;51.458;-0.110;2022-09-02T05:57:01;101400.47;;;17.46;83.04
74615;BME280;63121;51.458;-0.110;2022-09-02T05:59:28;101408.72;;;17.45;84.12
74615;BME280;63121;51.458;-0.110;2022-09-02T06:01:55;101402.91;;;17.48;83.57
74615;BME280;63121;51.458;-0.110;2022-09-02T06:04:21;101399.84;;;17.51;83.57
74615;BME280;63121;51.458;-0.110;2022-09-02T06:06:47;101405.84;;;17.53;83.35
74615;BME280;63121;51.458;-0.110;2022-09-02T06:09:16;101406.69;;;17.53;83.11
74615;BME280;63121;51.458;-0.110;2022-09-02T06:11:43;101401.50;;;17.52;83.41
74615;BME280;63121;51.458;-0.110;2022-09-02T06:14:16;101399.88;;;17.57;82.65
74615;BME280;63121;51.458;-0.110;2022-09-02T06:16:42;101397.44;;;17.69;82.50
74615;BME280;63121;51.458;-0.110;2022-09-02T06:19:08;101397.44;;;17.75;81.56
74615;BME280;63121;51.458;-0.110;2022-09-02T06:21:36;101400.16;;;17.82;81.59
74615;BME280;63121;51.458;-0.110;2022-09-02T06:24:07;101404.28;;;17.91;80.59
74615;BME280;63121;51.458;-0.110;2022-09-02T06:26:33;101396.84;;;17.93;80.67
74615;BME280;63121;51.458;-0.110;2022-09-02T06:28:59;101396.84;;;17.93;80.69
74615;BME280;63121;51.458;-0.110;2022-09-02T06:31:24;101385.09;;;18.00;80.92
74615;BME280;63121;51.458;-0.110;2022-09-02T06:33:52;101386.56;;;18.09;79.92
74615;BME280;63121;51.458;-0.110;2022-09-02T06:36:20;101382.22;;;18.21;79.56
74615;BME280;63121;51.458;-0.110;2022-09-02T06:38:49;101387.78;;;18.33;79.15
74615;BME280;63121;51.458;-0.110;2022-09-02T06:41:18;101381.00;;;18.50;77.41
74615;BME280;63121;51.458;-0.110;2022-09-02T06:43:44;101375.44;;;18.58;78.02
74615;BME280;63121;51.458;-0.110;2022-09-02T06:46:22;101379.53;;;18.67;77.50
74615;BME280;63121;51.458;-0.110;2022-09-02T06:48:48;101375.81;;;18.68;77.00
74615;BME280;63121;51.458;-0.110;2022-09-02T06:51:22;101383.25;;;18.72;77.31
74615;BME280;63121;51.458;-0.110;2022-09-02T06:53:49;101381.19;;;18.68;77.14
74615;BME280;63121;51.458;-0.110;2022-09-02T06:56:14;101379.09;;;18.83;76.66
74615;BME280;63121;51.458;-0.110;2022-09-02T06:58:40;101378.47;;;18.81;76.93
74615;BME280;63121;51.458;-0.110;2022-09-02T07:01:05;101375.75;;;18.94;76.11
74615;BME280;63121;51.458;-0.110;2022-09-02T07:03:32;101368.50;;;18.94;76.17
74615;BME280;63121;51.458;-0.110;2022-09-02T07:06:16;101357.13;;;18.99;76.33
74615;BME280;63121;51.458;-0.110;2022-09-02T07:08:42;101367.41;;;19.15;75.11
74615;BME280;63121;51.458;-0.110;2022-09-02T07:11:16;101355.19;;;19.26;74.26
74615;BME280;63121;51.458;-0.110;2022-09-02T07:13:42;101356.56;;;19.41;74.47
74615;BME280;63121;51.458;-0.110;2022-09-02T07:16:08;101354.44;;;19.50;74.29
74615;BME280;63121;51.458;-0.110;2022-09-02T07:18:34;101351.03;;;19.67;73.37
74615;BME280;63121;51.458;-0.110;2022-09-02T07:20:59;101353.44;;;19.75;72.84
74615;BME280;63121;51.458;-0.110;2022-09-02T07:23:25;101348.84;;;19.82;72.63
74615;BME280;63121;51.458;-0.110;2022-09-02T07:25:51;101342.16;;;19.91;72.13
74615;BME280;63121;51.458;-0.110;2022-09-02T07:28:17;101340.03;;;20.00;71.83
74615;BME280;63121;51.458;-0.110;2022-09-02T07:30:43;101343.56;;;20.00;71.95
74615;BME280;63121;51.458;-0.110;2022-09-02T07:33:12;101334.38;;;19.83;72.65
74615;BME280;63121;51.458;-0.110;2022-09-02T07:35:40;101341.59;;;19.83;72.59
74615;BME280;63121;51.458;-0.110;2022-09-02T07:38:06;101340.41;;;19.79;72.17
74615;BME280;63121;51.458;-0.110;2022-09-02T07:40:32;101339.56;;;19.78;72.97
74615;BME280;63121;51.458;-0.110;2022-09-02T07:43:01;101339.00;;;19.70;73.06
74615;BME280;63121;51.458;-0.110;2022-09-02T07:45:27;101332.78;;;19.69;72.66
74615;BME280;63121;51.458;-0.110;2022-09-02T07:47:53;101332.34;;;19.72;72.89
74615;BME280;63121;51.458;-0.110;2022-09-02T07:50:19;101337.72;;;19.72;73.18
74615;BME280;63121;51.458;-0.110;2022-09-02T07:52:45;101327.75;;;19.79;73.07
74615;BME280;63121;51.458;-0.110;2022-09-02T07:55:10;101336.88;;;19.78;72.37
74615;BME280;63121;51.458;-0.110;2022-09-02T07:57:36;101328.41;;;19.99;72.20
74615;BME280;63121;51.458;-0.110;2022-09-02T08:00:03;101330.03;;;20.07;71.80
74615;BME280;63121;51.458;-0.110;2022-09-02T08:02:29;101321.31;;;20.11;71.69
74615;BME280;63121;51.458;-0.110;2022-09-02T08:04:54;101328.66;;;20.22;71.45
74615;BME280;63121;51.458;-0.110;2022-09-02T08:07:19;101326.16;;;20.27;70.58
74615;BME280;63121;51.458;-0.110;2022-09-02T08:09:49;101329.72;;;20.21;70.95
74615;BME280;63121;51.458;-0.110;2022-09-02T08:12:15;101321.81;;;20.26;71.03
74615;BME280;63121;51.458;-0.110;2022-09-02T08:14:41;101324.06;;;20.29;71.21
74615;BME280;63121;51.458;-0.110;2022-09-02T08:17:07;101325.19;;;20.40;70.65
74615;BME280;63121;51.458;-0.110;2022-09-02T08:19:32;101325.63;;;20.37;70.38
74615;BME280;63121;51.458;-0.110;2022-09-02T08:22:05;101324.38;;;20.39;70.19
74615;BME280;63121;51.458;-0.110;2022-09-02T08:24:30;101325.59;;;20.43;69.80
74615;BME280;63121;51.458;-0.110;2022-09-02T08:26:57;101326.34;;;20.50;70.37
74615;BME280;63121;51.458;-0.110;2022-09-02T08:29:22;101327.09;;;20.57;70.02
74615;BME280;63121;51.458;-0.110;2022-09-02T08:31:47;101324.09;;;20.65;69.66
74615;BME280;63121;51.458;-0.110;2022-09-02T08:34:13;101327.41;;;20.67;68.50
74615;BME280;63121;51.458;-0.110;2022-09-02T08:36:38;101322.41;;;20.71;68.86
74615;BME280;63121;51.458;-0.110;2022-09-02T08:39:08;101320.22;;;20.79;68.09
74615;BME280;63121;51.458;-0.110;2022-09-02T08:44:09;101322.16;;;20.90;68.23
74615;BME280;63121;51.458;-0.110;2022-09-02T08:46:36;101323.78;;;20.91;67.91
74615;BME280;63121;51.458;-0.110;2022-09-02T08:49:17;101327.44;;;21.03;67.71
74615;BME280;63121;51.458;-0.110;2022-09-02T08:51:49;101327.03;;;21.18;66.98
74615;BME280;63121;51.458;-0.110;2022-09-02T08:57:02;101330.19;;;21.45;66.36
74615;BME280;63121;51.458;-0.110;2022-09-02T08:59:29;101319.63;;;21.43;66.40
74615;BME280;63121;51.458;-0.110;2022-09-02T09:10:08;101335.69;;;22.09;63.85
74615;BME280;63121;51.458;-0.110;2022-09-02T09:18:16;101326.78;;;22.43;62.71
74615;BME280;63121;51.458;-0.110;2022-09-02T09:20:44;101330.56;;;22.53;61.75
74615;BME280;63121;51.458;-0.110;2022-09-02T09:25:38;101317.13;;;22.81;61.44
74615;BME280;63121;51.458;-0.110;2022-09-02T09:28:03;101319.81;;;22.93;61.13
74615;BME280;63121;51.458;-0.110;2022-09-02T09:30:29;101304.44;;;23.10;60.70
74615;BME280;63121;51.458;-0.110;2022-09-02T09:32:56;101302.88;;;23.25;59.38
74615;BME280;63121;51.458;-0.110;2022-09-02T09:35:24;101310.91;;;23.20;59.65
74615;BME280;63121;51.458;-0.110;2022-09-02T09:37:51;101306.19;;;23.16;59.55
74615;BME280;63121;51.458;-0.110;2022-09-02T09:42:42;101303.66;;;23.37;58.41
74615;BME280;63121;51.458;-0.110;2022-09-02T09:45:26;101307.09;;;23.33;59.16
74615;BME280;63121;51.458;-0.110;2022-09-02T09:51:11;101297.88;;;23.46;59.42
74615;BME280;63121;51.458;-0.110;2022-09-02T09:53:38;101296.75;;;23.58;58.83
74615;BME280;63121;51.458;-0.110;2022-09-02T09:56:21;101285.06;;;23.41;58.68
74615;BME280;63121;51.458;-0.110;2022-09-02T09:58:49;101283.75;;;23.60;58.80
74615;BME280;63121;51.458;-0.110;2022-09-02T10:01:30;101283.75;;;23.60;59.00
74615;BME280;63121;51.458;-0.110;2022-09-02T10:04:32;101278.34;;;23.60;57.45
74615;BME280;63121;51.458;-0.110;2022-09-02T10:06:58;101268.38;;;23.77;57.66
74615;BME280;63121;51.458;-0.110;2022-09-02T10:09:29;101268.69;;;23.64;57.55
74615;BME280;63121;51.458;-0.110;2022-09-02T10:11:58;101257.19;;;23.57;57.17
74615;BME280;63121;51.458;-0.110;2022-09-02T10:14:31;101270.31;;;23.82;57.03
74615;BME280;63121;51.458;-0.110;2022-09-02T10:17:09;101272.47;;;23.96;56.59
74615;BME280;63121;51.458;-0.110;2022-09-02T10:20:14;101266.28;;;24.34;54.89
74615;BME280;63121;51.458;-0.110;2022-09-02T10:23:20;101260.59;;;24.52;53.62
74615;BME280;63121;51.458;-0.110;2022-09-02T10:26:22;101264.72;;;24.59;53.42
74615;BME280;63121;51.458;-0.110;2022-09-02T10:39:44;101249.63;;;25.06;51.52
74615;BME280;63121;51.458;-0.110;2022-09-02T10:42:44;101247.25;;;25.36;50.12
74615;BME280;63121;51.458;-0.110;2022-09-02T10:45:13;101256.13;;;25.58;49.43
74615;BME280;63121;51.458;-0.110;2022-09-02T10:47:50;101245.41;;;25.74;48.82
74615;BME280;63121;51.458;-0.110;2022-09-02T10:50:47;101245.47;;;25.84;48.40
74615;BME280;63121;51.458;-0.110;2022-09-02T10:56:17;101237.03;;;26.17;48.22
74615;BME280;63121;51.458;-0.110;2022-09-02T10:59:08;101240.91;;;26.31;47.65
74615;BME280;63121;51.458;-0.110;2022-09-02T11:01:40;101231.75;;;26.47;46.20
74615;BME280;63121;51.458;-0.110;2022-09-02T11:04:19;101233.25;;;26.69;45.70
74615;BME280;63121;51.458;-0.110;2022-09-02T11:06:48;101222.44;;;26.94;45.64
74615;BME280;63121;51.458;-0.110;2022-09-02T11:12:15;101207.59;;;27.42;43.26
74615;BME280;63121;51.458;-0.110;2022-09-02T11:15:03;101208.13;;;27.29;41.69
74615;BME280;63121;51.458;-0.110;2022-09-02T11:17:54;101208.59;;;27.16;40.32
74615;BME280;63121;51.458;-0.110;2022-09-02T11:20:45;101205.53;;;26.77;41.22
74615;BME280;63121;51.458;-0.110;2022-09-02T11:28:37;101206.00;;;26.13;40.99
74615;BME280;63121;51.458;-0.110;2022-09-02T11:31:17;101203.81;;;26.10;41.12
74615;BME280;63121;51.458;-0.110;2022-09-02T11:36:41;101183.75;;;26.21;41.43
74615;BME280;63121;51.458;-0.110;2022-09-02T11:39:33;101189.75;;;26.23;41.62
74615;BME280;63121;51.458;-0.110;2022-09-02T11:57:57;101157.31;;;28.18;38.23
74615;BME280;63121;51.458;-0.110;2022-09-02T12:00:32;101154.66;;;27.93;37.38
74615;BME280;63121;51.458;-0.110;2022-09-02T12:03:10;101147.03;;;27.75;37.56
74615;BME280;63121;51.458;-0.110;2022-09-02T12:11:03;101138.91;;;27.30;38.87
74615;BME280;63121;51.458;-0.110;2022-09-02T12:13:41;101143.25;;;27.31;39.65
74615;BME280;63121;51.458;-0.110;2022-09-02T12:21:19;101138.38;;;27.48;39.89
74615;BME280;63121;51.458;-0.110;2022-09-02T12:26:23;101144.22;;;28.20;37.75
74615;BME280;63121;51.458;-0.110;2022-09-02T12:28:50;101137.88;;;28.40;37.21
74615;BME280;63121;51.458;-0.110;2022-09-02T12:50:29;101110.00;;;27.59;39.61
74615;BME280;63121;51.458;-0.110;2022-09-02T12:53:13;101115.47;;;27.29;39.50
74615;BME280;63121;51.458;-0.110;2022-09-02T12:56:17;101118.16;;;26.99;40.37
74615;BME280;63121;51.458;-0.110;2022-09-02T12:58:48;101109.94;;;26.74;41.25
74615;BME280;63121;51.458;-0.110;2022-09-02T13:04:05;101101.81;;;26.84;40.85
74615;BME280;63121;51.458;-0.110;2022-09-02T13:06:45;101106.72;;;27.07;40.27
74615;BME280;63121;51.458;-0.110;2022-09-02T13:17:44;101083.31;;;27.46;40.00
74615;BME280;63121;51.458;-0.110;2022-09-02T13:20:29;101090.13;;;27.43;41.00
74615;BME280;63121;51.458;-0.110;2022-09-02T13:26:01;101086.03;;;27.61;40.83
74615;BME280;63121;51.458;-0.110;2022-09-02T13:31:26;101077.25;;;27.64;39.94
74615;BME280;63121;51.458;-0.110;2022-09-02T13:34:00;101076.38;;;27.99;39.26
74615;BME280;63121;51.458;-0.110;2022-09-02T13:36:29;101081.44;;;28.25;38.53
74615;BME280;63121;51.458;-0.110;2022-09-02T13:39:18;101069.31;;;28.51;37.63
74615;BME280;63121;51.458;-0.110;2022-09-02T13:41:44;101064.44;;;28.48;38.08
74615;BME280;63121;51.458;-0.110;2022-09-02T13:44:20;101071.94;;;28.66;37.53
74615;BME280;63121;51.458;-0.110;2022-09-02T13:46:48;101057.06;;;28.44;36.72
74615;BME280;63121;51.458;-0.110;2022-09-02T13:49:23;101063.81;;;28.56;37.30
74615;BME280;63121;51.458;-0.110;2022-09-02T13:51:52;101062.31;;;28.30;37.19
74615;BME280;63121;51.458;-0.110;2022-09-02T13:54:29;101054.22;;;28.15;36.63
74615;BME280;63121;51.458;-0.110;2022-09-02T13:56:57;101057.03;;;27.90;37.15
74615;BME280;63121;51.458;-0.110;2022-09-02T13:59:32;101064.69;;;27.73;37.44
74615;BME280;63121;51.458;-0.110;2022-09-02T14:01:57;101051.41;;;27.56;37.69
74615;BME280;63121;51.458;-0.110;2022-09-02T14:04:23;101052.78;;;27.34;38.42
74615;BME280;63121;51.458;-0.110;2022-09-02T14:06:50;101050.63;;;27.36;37.66
74615;BME280;63121;51.458;-0.110;2022-09-02T14:09:23;101052.81;;;27.19;38.17
74615;BME280;63121;51.458;-0.110;2022-09-02T14:11:50;101050.88;;;27.14;38.17
74615;BME280;63121;51.458;-0.110;2022-09-02T14:14:21;101052.81;;;26.89;38.59
74615;BME280;63121;51.458;-0.110;2022-09-02T14:16:47;101049.53;;;26.87;38.55
74615;BME280;63121;51.458;-0.110;2022-09-02T14:21:55;101043.50;;;26.65;39.22
74615;BME280;63121;51.458;-0.110;2022-09-02T14:24:26;101038.03;;;26.50;39.61
74615;BME280;63121;51.458;-0.110;2022-09-02T14:26:54;101038.00;;;26.45;40.90
74615;BME280;63121;51.458;-0.110;2022-09-02T14:29:20;101029.31;;;26.43;39.90
74615;BME280;63121;51.458;-0.110;2022-09-02T14:32:23;101028.22;;;26.39;40.50
74615;BME280;63121;51.458;-0.110;2022-09-02T14:34:48;101026.59;;;26.33;40.79
74615;BME280;63121;51.458;-0.110;2022-09-02T14:37:31;101037.41;;;26.18;41.13
74615;BME280;63121;51.458;-0.110;2022-09-02T14:40:04;101036.34;;;26.24;41.22
74615;BME280;63121;51.458;-0.110;2022-09-02T14:42:32;101032.50;;;26.15;43.24
74615;BME280;63121;51.458;-0.110;2022-09-02T14:44:59;101039.59;;;26.21;44.89
74615;BME280;63121;51.458;-0.110;2022-09-02T14:47:27;101037.94;;;26.15;45.72
74615;BME280;63121;51.458;-0.110;2022-09-02T14:49:53;101023.25;;;26.06;46.01
74615;BME280;63121;51.458;-0.110;2022-09-02T14:52:25;101030.03;;;26.13;45.70